createdAt,value
2018-12-13T00:00:05.499Z,18.00
2018-12-13T00:02:33.317Z,15.73
2018-12-13T00:05:01.139Z,17.33
2018-12-13T00:07:28.911Z,15.10
2018-12-13T00:09:56.770Z,17.00
2018-12-13T00:12:24.517Z,16.23
2018-12-13T00:14:52.237Z,16.97
2018-12-13T00:17:19.999Z,16.73
2018-12-13T00:19:47.742Z,16.43
2018-12-13T00:22:15.520Z,13.90
2018-12-13T00:24:43.980Z,16.63
2018-12-13T00:27:11.824Z,15.13
2018-12-13T00:29:39.533Z,15.10
2018-12-13T00:32:07.320Z,16.20
2018-12-13T00:34:35.192Z,16.63
2018-12-13T00:37:02.988Z,13.77
2018-12-13T00:39:30.780Z,14.87
2018-12-13T00:41:58.595Z,14.73
2018-12-13T00:44:26.339Z,15.87
2018-12-13T00:46:54.077Z,15.70
2018-12-13T00:49:21.862Z,15.13
2018-12-13T00:51:49.639Z,15.60
2018-12-13T00:54:17.386Z,14.20
2018-12-13T00:56:45.233Z,14.73
2018-12-13T00:59:12.974Z,16.70
2018-12-13T01:01:40.748Z,14.17
2018-12-13T01:04:08.616Z,15.97
2018-12-13T01:06:36.415Z,13.67
2018-12-13T01:09:05.440Z,14.80
2018-12-13T01:11:33.224Z,15.37
2018-12-13T01:14:01.065Z,17.37
2018-12-13T01:16:28.813Z,16.90
2018-12-13T01:18:56.588Z,15.90
2018-12-13T01:21:24.355Z,14.53
2018-12-13T01:23:52.176Z,15.17
2018-12-13T01:26:19.928Z,17.93
2018-12-13T01:28:47.648Z,16.10
2018-12-13T01:31:15.429Z,13.67
2018-12-13T01:33:43.177Z,14.20
2018-12-13T01:36:10.937Z,16.47
2018-12-13T01:38:38.732Z,15.53
2018-12-13T01:41:06.472Z,13.13
2018-12-13T01:43:34.227Z,13.07
2018-12-13T01:46:01.976Z,15.57
2018-12-13T01:48:29.714Z,15.07
2018-12-13T01:50:57.472Z,13.20
2018-12-13T01:53:25.238Z,16.33
2018-12-13T01:55:53.000Z,15.77
2018-12-13T01:58:20.744Z,12.97
2018-12-13T02:00:48.477Z,12.53
2018-12-13T02:03:16.206Z,12.47
2018-12-13T02:05:44.066Z,10.57
2018-12-13T02:08:11.835Z,11.87
2018-12-13T02:10:39.580Z,11.97
2018-12-13T02:13:07.349Z,12.23
2018-12-13T02:15:35.053Z,11.70
2018-12-13T02:18:02.793Z,13.70
2018-12-13T02:20:31.464Z,12.70
2018-12-13T02:22:59.208Z,13.40
2018-12-13T02:25:26.960Z,15.30
2018-12-13T02:27:54.813Z,15.07
2018-12-13T02:30:23.587Z,13.93
2018-12-13T02:32:51.321Z,13.67
2018-12-13T02:35:19.088Z,14.07
2018-12-13T02:37:46.876Z,13.40
2018-12-13T02:40:15.352Z,11.57
2018-12-13T02:42:43.097Z,13.20
2018-12-13T02:45:10.867Z,10.40
2018-12-13T02:47:38.589Z,12.40
2018-12-13T02:50:06.492Z,10.63
2018-12-13T02:52:34.306Z,13.20
2018-12-13T02:55:02.118Z,10.07
2018-12-13T02:57:29.888Z,11.23
2018-12-13T02:59:57.650Z,13.13
2018-12-13T03:02:25.365Z,9.77
2018-12-13T03:04:53.141Z,11.33
2018-12-13T03:07:20.878Z,11.93
2018-12-13T03:09:48.577Z,10.60
2018-12-13T03:12:16.355Z,11.83
2018-12-13T03:14:44.625Z,13.73
2018-12-13T03:17:12.525Z,13.57
2018-12-13T03:19:40.263Z,13.37
2018-12-13T03:22:08.009Z,12.07
2018-12-13T03:24:35.799Z,12.13
2018-12-13T03:27:03.534Z,12.37
2018-12-13T03:29:31.316Z,14.80
2018-12-13T03:31:59.070Z,14.67
2018-12-13T03:34:26.884Z,14.60
2018-12-13T03:36:54.651Z,14.23
2018-12-13T03:39:22.417Z,15.00
2018-12-13T03:41:50.177Z,15.87
2018-12-13T03:44:17.931Z,15.27
2018-12-13T03:46:45.831Z,17.70
2018-12-13T03:49:13.698Z,15.33
2018-12-13T03:51:41.440Z,15.17
2018-12-13T03:54:09.190Z,16.40
2018-12-13T03:56:36.921Z,18.03
2018-12-13T03:59:04.702Z,19.27
2018-12-13T04:01:32.489Z,16.63
2018-12-13T04:04:00.225Z,18.63
2018-12-13T04:06:27.982Z,18.00
2018-12-13T04:08:55.735Z,19.40
2018-12-13T04:11:23.493Z,19.77
2018-12-13T04:13:51.286Z,18.63
2018-12-13T04:16:19.123Z,20.17
2018-12-13T04:18:47.139Z,17.70
2018-12-13T04:21:14.924Z,17.03
2018-12-13T04:23:42.647Z,18.00
2018-12-13T04:26:10.416Z,18.57
2018-12-13T04:28:38.156Z,18.77
2018-12-13T04:31:05.857Z,18.47
2018-12-13T04:33:33.617Z,17.60
2018-12-13T04:36:01.344Z,17.47
2018-12-13T04:38:29.073Z,15.60
2018-12-13T04:40:56.817Z,16.13
2018-12-13T04:43:24.569Z,17.20
2018-12-13T04:45:52.297Z,16.80
2018-12-13T04:48:20.085Z,18.53
2018-12-13T04:50:47.856Z,17.27
2018-12-13T04:53:15.617Z,16.97
2018-12-13T04:55:43.363Z,14.00
2018-12-13T04:58:11.085Z,15.13
2018-12-13T05:00:38.890Z,15.30
2018-12-13T05:03:06.669Z,13.47
2018-12-13T05:05:34.392Z,11.07
2018-12-13T05:08:02.103Z,11.80
2018-12-13T05:10:43.164Z,13.00
2018-12-13T05:13:10.860Z,10.80
2018-12-13T05:15:38.612Z,10.73
2018-12-13T05:18:06.353Z,10.53
2018-12-13T05:20:34.908Z,12.27
2018-12-13T05:23:02.609Z,12.77
2018-12-13T05:25:30.408Z,12.10
2018-12-13T05:27:58.234Z,11.10
2018-12-13T05:30:25.993Z,10.63
2018-12-13T05:32:53.719Z,10.00
2018-12-13T05:35:21.473Z,10.20
2018-12-13T05:37:49.205Z,9.23
2018-12-13T05:40:16.947Z,9.07
2018-12-13T05:42:44.735Z,8.80
2018-12-13T05:45:12.528Z,9.10
2018-12-13T05:47:40.354Z,10.17
2018-12-13T05:50:08.316Z,11.33
2018-12-13T05:52:36.008Z,9.70
2018-12-13T05:55:04.013Z,10.13
2018-12-13T05:57:31.789Z,11.40
2018-12-13T05:59:59.602Z,9.57
2018-12-13T06:02:27.408Z,8.87
2018-12-13T06:04:55.176Z,8.77
2018-12-13T06:07:22.921Z,8.13
2018-12-13T06:09:50.684Z,8.50
2018-12-13T06:12:18.430Z,10.90
2018-12-13T06:14:46.179Z,11.10
2018-12-13T06:17:13.978Z,12.33
2018-12-13T06:19:41.722Z,11.20
2018-12-13T06:22:09.530Z,10.87
2018-12-13T06:24:37.920Z,11.63
2018-12-13T06:27:05.687Z,12.57
2018-12-13T06:29:33.453Z,10.83
2018-12-13T06:32:01.182Z,10.97
2018-12-13T06:34:28.942Z,10.37
2018-12-13T06:36:56.718Z,10.43
2018-12-13T06:39:24.563Z,11.03
2018-12-13T06:41:52.325Z,11.40
2018-12-13T06:44:20.109Z,9.17
2018-12-13T06:46:47.846Z,12.00
2018-12-13T06:49:15.596Z,9.87
2018-12-13T06:51:43.360Z,9.40
2018-12-13T06:54:11.101Z,9.63
2018-12-13T06:56:38.869Z,8.43
2018-12-13T06:59:06.617Z,9.73
2018-12-13T07:01:34.397Z,9.27
2018-12-13T07:04:02.375Z,8.93
2018-12-13T07:06:31.121Z,8.37
2018-12-13T07:08:58.925Z,8.67
2018-12-13T07:11:26.642Z,7.30
2018-12-13T07:13:54.412Z,7.73
2018-12-13T07:16:22.194Z,8.90
2018-12-13T07:18:49.990Z,7.17
2018-12-13T07:21:17.751Z,6.47
2018-12-13T07:23:45.566Z,6.10
2018-12-13T07:26:13.378Z,7.93
2018-12-13T07:28:41.138Z,6.57
2018-12-13T07:31:08.901Z,6.33
2018-12-13T07:33:36.600Z,7.00
2018-12-13T07:36:04.368Z,6.63
2018-12-13T07:38:32.084Z,5.90
2018-12-13T07:40:59.900Z,6.17
2018-12-13T07:43:27.652Z,6.90
2018-12-13T07:45:55.343Z,6.93
2018-12-13T07:49:27.715Z,6.43
2018-12-13T07:51:55.493Z,6.87
2018-12-13T07:54:23.252Z,8.20
2018-12-13T07:56:50.956Z,7.50
2018-12-13T07:59:18.803Z,7.83
2018-12-13T08:01:46.720Z,7.43
2018-12-13T08:04:14.856Z,6.77
2018-12-13T08:06:42.728Z,8.53
2018-12-13T08:09:10.510Z,7.50
2018-12-13T08:11:38.278Z,7.67
2018-12-13T08:14:06.068Z,9.63
2018-12-13T08:16:33.840Z,7.97
2018-12-13T08:19:02.182Z,8.97
2018-12-13T08:21:30.104Z,9.00
2018-12-13T08:23:57.866Z,7.33
2018-12-13T08:26:25.643Z,8.90
2018-12-13T08:28:53.361Z,6.40
2018-12-13T08:31:21.129Z,7.37
2018-12-13T08:33:49.146Z,6.77
2018-12-13T08:36:16.888Z,6.50
2018-12-13T08:38:44.709Z,7.83
2018-12-13T08:41:12.428Z,7.90
2018-12-13T08:43:40.198Z,6.40
2018-12-13T08:46:08.037Z,7.67
2018-12-13T08:48:35.801Z,6.20
2018-12-13T08:51:03.677Z,7.63
2018-12-13T08:53:31.838Z,6.53
2018-12-13T08:55:59.615Z,7.17
2018-12-13T08:58:27.611Z,8.03
2018-12-13T09:00:55.405Z,7.67
2018-12-13T09:03:23.215Z,7.37
2018-12-13T09:05:50.954Z,7.33
2018-12-13T09:08:18.718Z,6.83
2018-12-13T09:10:46.420Z,6.80
2018-12-13T09:13:15.035Z,6.43
2018-12-13T09:15:42.794Z,7.60
2018-12-13T09:18:10.584Z,6.90
2018-12-13T09:20:38.294Z,7.70
2018-12-13T09:23:06.117Z,9.03
2018-12-13T09:25:33.868Z,7.10
2018-12-13T09:28:01.598Z,8.77
2018-12-13T09:30:29.344Z,6.73
2018-12-13T09:32:57.125Z,8.40
2018-12-13T09:35:24.949Z,7.37
2018-12-13T09:37:52.745Z,8.37
2018-12-13T09:40:20.542Z,6.80
2018-12-13T09:42:48.276Z,7.23
2018-12-13T09:45:16.113Z,6.13
2018-12-13T09:47:43.873Z,9.00
2018-12-13T09:50:11.796Z,8.47
2018-12-13T09:52:39.713Z,8.50
2018-12-13T09:55:07.485Z,7.70
2018-12-13T09:57:35.589Z,7.63
2018-12-13T10:00:05.116Z,11.53
2018-12-13T10:02:32.908Z,7.57
2018-12-13T10:05:00.648Z,9.97
2018-12-13T10:07:28.392Z,8.33
2018-12-13T10:09:56.114Z,7.80
2018-12-13T10:12:23.903Z,7.23
2018-12-13T10:14:51.665Z,8.73
2018-12-13T10:17:19.455Z,8.27
2018-12-13T10:19:47.272Z,8.10
2018-12-13T10:22:15.048Z,9.13
2018-12-13T10:24:42.805Z,6.53
2018-12-13T10:27:10.572Z,8.33
2018-12-13T10:29:38.338Z,8.93
2018-12-13T10:32:06.135Z,8.77
2018-12-13T10:34:33.916Z,7.23
2018-12-13T10:37:01.700Z,7.50
2018-12-13T10:39:30.145Z,7.90
2018-12-13T10:41:57.874Z,8.37
2018-12-13T10:44:32.844Z,7.73
2018-12-13T10:47:00.629Z,7.30
2018-12-13T10:49:28.549Z,7.60
2018-12-13T10:51:56.304Z,8.13
2018-12-13T10:54:24.190Z,8.00
2018-12-13T10:56:51.977Z,8.33
2018-12-13T10:59:19.765Z,9.03
2018-12-13T11:01:53.011Z,7.17
2018-12-13T11:04:20.735Z,9.23
2018-12-13T11:06:48.461Z,8.73
2018-12-13T11:09:16.216Z,7.70
2018-12-13T11:11:43.965Z,7.93
2018-12-13T11:14:11.696Z,7.57
2018-12-13T11:16:39.732Z,7.83
2018-12-13T11:19:07.533Z,8.53
2018-12-13T11:21:35.464Z,7.37
2018-12-13T11:24:03.337Z,7.07
2018-12-13T11:26:31.132Z,8.00
2018-12-13T11:29:35.129Z,7.97
2018-12-13T11:32:02.948Z,6.93
2018-12-13T11:34:30.755Z,6.63
2018-12-13T11:36:58.552Z,7.13
2018-12-13T11:39:26.324Z,6.30
2018-12-13T11:41:54.061Z,6.00
2018-12-13T11:44:21.918Z,7.00
2018-12-13T11:46:49.752Z,6.67
2018-12-13T11:49:17.543Z,5.77
2018-12-13T11:51:45.307Z,7.67
2018-12-13T11:54:41.216Z,5.63
2018-12-13T11:57:09.000Z,5.90
2018-12-13T11:59:36.743Z,6.17
2018-12-13T12:02:04.503Z,5.87
2018-12-13T12:04:32.291Z,6.37
2018-12-13T12:07:00.074Z,6.73
2018-12-13T12:09:27.863Z,6.37
2018-12-13T12:11:55.763Z,6.83
2018-12-13T12:14:23.969Z,6.03
2018-12-13T12:16:51.877Z,5.60
2018-12-13T12:19:19.661Z,4.67
2018-12-13T12:21:48.050Z,4.93
2018-12-13T12:24:15.765Z,4.87
2018-12-13T12:26:44.193Z,5.63
2018-12-13T12:29:11.934Z,5.90
2018-12-13T12:31:39.723Z,4.90
2018-12-13T12:34:07.560Z,4.50
2018-12-13T12:36:35.267Z,4.37
2018-12-13T12:39:05.215Z,4.70
2018-12-13T12:41:33.014Z,5.03
2018-12-13T12:44:00.732Z,5.80
2018-12-13T12:46:28.468Z,3.73
2018-12-13T12:48:56.204Z,3.83
2018-12-13T12:51:23.985Z,3.77
2018-12-13T12:53:51.699Z,3.80
2018-12-13T12:56:19.438Z,4.83
2018-12-13T12:58:47.203Z,4.70
2018-12-13T13:01:14.916Z,3.70
2018-12-13T13:03:42.661Z,3.40
2018-12-13T13:06:10.434Z,4.27
2018-12-13T13:08:38.211Z,3.43
2018-12-13T13:11:06.077Z,3.17
2018-12-13T13:13:33.821Z,3.97
2018-12-13T13:16:01.575Z,4.43
2018-12-13T13:18:29.334Z,4.40
2018-12-13T13:20:57.049Z,3.73
2018-12-13T13:23:24.841Z,4.10
2018-12-13T13:25:52.604Z,4.13
2018-12-13T13:28:20.333Z,3.97
2018-12-13T13:30:48.045Z,3.63
2018-12-13T13:33:15.845Z,3.80
2018-12-13T13:35:43.564Z,3.43
2018-12-13T13:38:11.304Z,4.37
2018-12-13T13:40:39.096Z,3.70
2018-12-13T13:43:06.901Z,3.90
2018-12-13T13:45:34.668Z,4.30
2018-12-13T13:48:02.463Z,4.90
2018-12-13T13:50:30.212Z,3.93
2018-12-13T13:52:58.058Z,4.17
2018-12-13T13:55:25.833Z,3.73
2018-12-13T13:57:53.599Z,3.90
2018-12-13T14:00:21.386Z,3.50
2018-12-13T14:02:49.151Z,3.90
2018-12-13T14:05:16.891Z,4.47
2018-12-13T14:07:44.680Z,3.70
2018-12-13T14:10:12.564Z,4.33
2018-12-13T14:12:40.318Z,5.27
2018-12-13T14:15:08.381Z,3.77
2018-12-13T14:17:36.097Z,5.23
2018-12-13T14:20:04.132Z,3.90
2018-12-13T14:22:31.921Z,4.03
2018-12-13T14:24:59.688Z,4.43
2018-12-13T14:27:27.626Z,4.03
2018-12-13T14:29:55.374Z,5.47
2018-12-13T14:32:23.125Z,4.50
2018-12-13T14:34:57.349Z,6.40
2018-12-13T14:37:20.758Z,4.80
2018-12-13T14:39:48.545Z,5.60
2018-12-13T14:42:16.267Z,5.87
2018-12-13T14:44:44.117Z,6.10
2018-12-13T14:47:11.897Z,7.37
2018-12-13T14:49:39.753Z,5.43
2018-12-13T14:52:07.544Z,6.20
2018-12-13T14:54:35.297Z,6.13
2018-12-13T14:57:03.250Z,4.97
2018-12-13T14:59:30.980Z,4.77
2018-12-13T15:01:58.797Z,4.63
2018-12-13T15:04:26.510Z,5.27
2018-12-13T15:06:54.270Z,5.83
2018-12-13T15:09:22.021Z,6.17
2018-12-13T15:11:49.777Z,5.60
2018-12-13T15:14:17.591Z,5.70
2018-12-13T15:16:45.459Z,5.23
2018-12-13T15:19:13.215Z,5.67
2018-12-13T15:21:41.013Z,5.10
2018-12-13T15:24:08.704Z,5.80
2018-12-13T15:26:36.486Z,6.20
2018-12-13T15:29:05.257Z,7.63
2018-12-13T15:31:33.045Z,6.03
2018-12-13T15:34:00.878Z,6.40
2018-12-13T15:36:28.641Z,6.30
2018-12-13T15:38:56.428Z,7.13
2018-12-13T15:41:24.260Z,6.27
2018-12-13T15:43:52.024Z,6.73
2018-12-13T15:46:19.788Z,5.60
2018-12-13T15:48:47.763Z,6.73
2018-12-13T15:51:15.580Z,33.00
2018-12-13T15:53:43.309Z,9.00
2018-12-13T15:56:11.071Z,7.63
2018-12-13T15:58:38.820Z,6.20
2018-12-13T16:01:06.565Z,5.83
2018-12-13T16:03:34.306Z,6.43
2018-12-13T16:06:02.092Z,6.33
2018-12-13T16:08:29.843Z,5.90
2018-12-13T16:10:57.932Z,6.60
2018-12-13T16:13:26.222Z,6.10
2018-12-13T16:15:54.021Z,6.80
2018-12-13T16:18:21.770Z,5.77
2018-12-13T16:20:49.522Z,5.70
2018-12-13T16:23:17.666Z,6.27
2018-12-13T16:25:45.427Z,6.63
2018-12-13T16:28:13.168Z,7.33
2018-12-13T16:30:40.947Z,6.20
2018-12-13T16:33:08.745Z,7.40
2018-12-13T16:35:36.492Z,8.47
2018-12-13T16:38:06.032Z,7.73
2018-12-13T16:40:33.876Z,7.67
2018-12-13T16:43:01.652Z,7.60
2018-12-13T16:45:29.404Z,7.33
2018-12-13T16:47:57.186Z,7.30
2018-12-13T16:50:24.968Z,8.53
2018-12-13T16:52:53.448Z,7.47
2018-12-13T16:55:21.281Z,7.60
2018-12-13T16:57:49.036Z,7.23
2018-12-13T17:00:16.813Z,7.47
2018-12-13T17:02:45.332Z,8.10
2018-12-13T17:05:13.057Z,8.10
2018-12-13T17:07:40.829Z,8.43
2018-12-13T17:10:09.134Z,10.10
2018-12-13T17:12:36.929Z,9.70
2018-12-13T17:15:05.506Z,9.67
2018-12-13T17:17:33.315Z,9.93
2018-12-13T17:20:01.132Z,9.03
2018-12-13T17:22:29.153Z,9.80
2018-12-13T17:24:57.104Z,11.03
2018-12-13T17:27:25.168Z,7.83
2018-12-13T17:29:53.089Z,10.03
2018-12-13T17:32:20.974Z,9.53
2018-12-13T17:34:48.902Z,9.63
2018-12-13T17:37:16.785Z,10.47
2018-12-13T17:39:44.671Z,10.37
2018-12-13T17:42:12.452Z,11.70
2018-12-13T17:44:40.201Z,12.40
2018-12-13T17:47:07.981Z,10.20
2018-12-13T17:49:36.451Z,11.07
2018-12-13T17:52:04.385Z,11.10
2018-12-13T17:54:32.192Z,8.93
2018-12-13T17:56:59.945Z,9.90
2018-12-13T17:59:27.734Z,12.63
2018-12-13T18:01:55.657Z,11.80
2018-12-13T18:04:24.382Z,8.80
2018-12-13T18:06:52.133Z,9.27
2018-12-13T18:09:19.920Z,9.30
2018-12-13T18:11:47.639Z,12.00
2018-12-13T18:14:15.428Z,10.57
2018-12-13T18:16:43.559Z,10.10
2018-12-13T18:19:11.571Z,9.63
2018-12-13T18:21:39.374Z,8.13
2018-12-13T18:24:07.209Z,8.83
2018-12-13T18:26:34.938Z,8.83
2018-12-13T18:29:02.827Z,9.03
2018-12-13T18:31:30.529Z,9.93
2018-12-13T18:33:58.290Z,8.27
2018-12-13T18:36:26.119Z,7.70
2018-12-13T18:38:53.825Z,8.33
2018-12-13T18:41:21.604Z,8.87
2018-12-13T18:43:49.369Z,8.07
2018-12-13T18:46:17.148Z,6.83
2018-12-13T18:48:45.555Z,7.67
2018-12-13T18:51:13.382Z,7.37
2018-12-13T18:53:41.109Z,7.60
2018-12-13T18:56:08.841Z,7.47
2018-12-13T18:58:36.659Z,5.60
2018-12-13T19:01:04.388Z,5.90
2018-12-13T19:03:32.109Z,6.70
2018-12-13T19:05:59.835Z,6.67
2018-12-13T19:08:27.825Z,6.00
2018-12-13T19:10:56.639Z,5.33
2018-12-13T19:13:25.017Z,5.83
2018-12-13T19:15:52.944Z,8.20
2018-12-13T19:18:20.701Z,5.37
2018-12-13T19:20:48.533Z,6.03
2018-12-13T19:23:16.331Z,6.80
2018-12-13T19:25:44.760Z,5.63
2018-12-13T19:28:12.578Z,6.43
2018-12-13T19:30:41.002Z,5.63
2018-12-13T19:33:08.810Z,5.80
2018-12-13T19:35:36.614Z,5.60
2018-12-13T19:38:04.400Z,7.23
2018-12-13T19:40:32.223Z,5.33
2018-12-13T19:43:00.034Z,6.70
2018-12-13T19:45:27.816Z,5.57
2018-12-13T19:47:55.806Z,5.20
2018-12-13T19:50:23.624Z,6.17
2018-12-13T19:52:51.432Z,5.90
2018-12-13T19:55:19.248Z,6.00
2018-12-13T19:57:47.013Z,6.47
2018-12-13T20:00:14.752Z,5.17
2018-12-13T20:02:42.544Z,5.83
2018-12-13T20:05:10.292Z,6.67
2018-12-13T20:07:38.034Z,7.47
2018-12-13T20:10:06.993Z,5.93
2018-12-13T20:12:34.749Z,7.20
2018-12-13T20:15:02.584Z,6.33
2018-12-13T20:17:30.360Z,5.20
2018-12-13T20:19:58.080Z,5.87
2018-12-13T20:22:25.810Z,6.07
2018-12-13T20:24:53.600Z,5.70
2018-12-13T20:27:21.693Z,5.50
2018-12-13T20:29:49.521Z,6.60
2018-12-13T20:32:17.524Z,6.43
2018-12-13T20:34:45.956Z,6.13
2018-12-13T20:37:13.972Z,7.43
2018-12-13T20:39:41.763Z,8.10
2018-12-13T20:42:09.525Z,7.37
2018-12-13T20:44:37.286Z,7.53
2018-12-13T20:47:05.009Z,7.93
2018-12-13T20:49:33.515Z,7.90
2018-12-13T20:52:01.394Z,8.53
2018-12-13T20:54:29.130Z,8.57
2018-12-13T20:56:56.876Z,8.50
2018-12-13T20:59:24.659Z,9.13
2018-12-13T21:01:53.148Z,8.90
2018-12-13T21:04:21.946Z,9.10
2018-12-13T21:06:54.141Z,10.60
2018-12-13T21:09:21.926Z,9.77
2018-12-13T21:11:49.616Z,11.20
2018-12-13T21:14:17.335Z,11.03
2018-12-13T21:16:45.178Z,11.30
2018-12-13T21:19:12.934Z,8.87
2018-12-13T21:21:40.670Z,11.13
2018-12-13T21:24:08.454Z,13.27
2018-12-13T21:26:36.255Z,12.40
2018-12-13T21:29:04.138Z,12.83
2018-12-13T21:31:32.004Z,12.17
2018-12-13T21:33:59.753Z,13.23
2018-12-13T21:36:27.514Z,12.13
2018-12-13T21:38:55.288Z,11.10
2018-12-13T21:41:23.042Z,12.60
2018-12-13T21:43:51.072Z,13.07
2018-12-13T21:46:19.439Z,12.10
2018-12-13T21:48:47.271Z,12.80
2018-12-13T21:51:15.042Z,12.37
2018-12-13T21:53:42.882Z,13.90
2018-12-13T21:56:10.744Z,12.90
2018-12-13T21:58:38.530Z,12.13
2018-12-13T22:01:06.330Z,15.03
2018-12-13T22:03:34.154Z,13.80
2018-12-13T22:06:01.929Z,12.23
2018-12-13T22:08:29.701Z,16.57
2018-12-13T22:10:57.548Z,13.30
2018-12-13T22:13:25.306Z,12.80
2018-12-13T22:15:53.021Z,13.50
2018-12-13T22:18:20.840Z,13.90
2018-12-13T22:20:48.612Z,13.80
2018-12-13T22:23:16.360Z,12.63
2018-12-13T22:25:44.209Z,16.20
2018-12-13T22:28:11.991Z,15.93
2018-12-13T22:30:39.737Z,17.43
2018-12-13T22:33:07.558Z,14.80
2018-12-13T22:35:35.288Z,13.17
2018-12-13T22:38:03.172Z,16.93
2018-12-13T22:40:30.968Z,16.30
2018-12-13T22:42:58.740Z,16.33
2018-12-13T22:45:26.522Z,16.93
2018-12-13T22:47:55.070Z,15.17
2018-12-13T22:50:22.806Z,18.33
2018-12-13T22:52:50.552Z,17.80
2018-12-13T22:55:18.296Z,19.07
2018-12-13T22:57:46.042Z,16.77
2018-12-13T23:00:13.872Z,17.10
2018-12-13T23:02:41.644Z,21.20
2018-12-13T23:05:09.437Z,19.20
2018-12-13T23:07:37.196Z,17.40
2018-12-13T23:10:05.092Z,18.80
2018-12-13T23:12:32.945Z,18.67
2018-12-13T23:15:00.705Z,21.70
2018-12-13T23:17:28.596Z,19.57
2018-12-13T23:19:56.412Z,22.33
2018-12-13T23:22:24.202Z,18.30
2018-12-13T23:24:52.005Z,17.93
2018-12-13T23:27:19.784Z,18.73
2018-12-13T23:29:47.556Z,19.60
2018-12-13T23:32:15.368Z,19.80
2018-12-13T23:34:43.089Z,20.83
2018-12-13T23:37:10.927Z,22.10
2018-12-13T23:39:38.604Z,20.67
2018-12-13T23:42:06.349Z,19.17
2018-12-13T23:44:34.153Z,21.13
2018-12-13T23:47:01.905Z,20.07
2018-12-13T23:49:29.734Z,18.47
2018-12-13T23:51:57.469Z,23.23
2018-12-13T23:54:25.279Z,20.23
2018-12-13T23:56:53.102Z,20.40
2018-12-13T23:59:20.897Z,21.57
